Ushuaia, Argentina

4:19 AM -03 en Junio 29, 2017 (GMT -0300)
Refugio martial | | Change Station

Alt 900 ft 54.80 °S, 68.30 °W | Updated 4 seconds ago

Scattered Clouds
Nubes dispersas
27.5 ° F
Sensación térmica 28 ° F
N
1.3
Viento Variable Viento desde NNO
Gusts 2.5 mph

Hoy
Alta -- | Baja -- ° F
--% Posibilidad de precipitaciones
Ayer
Alta -- | Baja -- ° F
Precip. -- pul
Presión 29.36 pul
Visibilidad 6.2 Millas
Nubes Nubes dispersas 2500 ft
Vientos helados 28 ° F
Punto de rocío 23 ° F
Humedad 83%
Precipitaciones 0.00 pul
Espesor de la nieve No disponible.
9:58 AM 5:15 PM
Creciente, 33% visible
METAR SAWH 290700Z 23021G31KT 9999 SCT025 01/M02 Q0994
Presión 29.36 pul
Visibilidad 6.2 Millas
Nubes Nubes dispersas 2500 ft
Vientos helados 28 ° F
Punto de rocío 23 ° F
Humedad 83%
Precipitaciones 0.00 pul
Espesor de la nieve No disponible.
9:58 AM 5:15 PM
Creciente, 33% visible
METAR SAWH 290700Z 23021G31KT 9999 SCT025 01/M02 Q0994

Get Severe Weather Alerts

Thanks for signing up!

Be on the lookout for a verification email in your inbox.

You'll start receiving the daily forecast at 6 AM.

×

10-Day Weather Forecast

Almanac

Astronomía

Jun. 29, 2017 Salida Puesta
Hora real
Crepúsculo civil
Crepúsculo náutico
Crepúsculo astronómico
Luna
Horas de luz
Horas de luz
Tomorrow will be .
, % of the Moon is Illuminated

Extremos de hoy

Máximos del país Bajas del país

Community

WunderPhotos

Category 6

Welcome to Category 6. This is the collective home for Weather Underground's featured writeups by Dr. Jeff Masters (right), Bob Henson (left), Chris Burt, and other regular contributors.

Nearby

Calidad del aire

  Calidad del aire Índice AQ Contaminante
Not available.

Grosos de nieve

Estación Profundido Altura

Actividad de terremotos

Ciudad Distance Mag. Tiempo y dato
Magnitud mínima muestra es 2,5.

Temperaturas de aguas costeras

Lugar Temperatura

Stations

Estaciones meteorológicas cercanas

Ubicación de la estación Temp. Vientos helados Punto de rocío Humedad Viento Precip. Alt Actualizado Tipo